Time;durP1;ratioP1;P1;durP2;ratioP2;P2;SDS_P1;SDS_P2;PMS_P1;PMS_P2;Temp;Humidity;BMP_temperature;BMP_pressure;BME280_temperature;BME280_humidity;BME280_pressure;Samples;Min_cycle;Max_cycle;Signal;HPM_P1;HPM_P2
2021/12/24 00:01:02;;;;;;;47.30;22.10;;;;;;;;;;5106397;28;20312;-80
2021/12/24 00:03:29;;;;;;;50.10;22.23;;;;;;;;;;5109982;28;20289;-79
2021/12/24 00:05:57;;;;;;;49.00;22.13;;;;;;;;;;5097395;28;20194;-79
2021/12/24 00:08:25;;;;;;;43.97;22.67;;;;;;;;;;5101153;28;20201;-80
2021/12/24 00:10:59;;;;;;;60.77;22.83;;;;;;;;;;5106228;28;20201;-79
2021/12/24 00:13:26;;;;;;;50.33;22.70;;;;;;;;;;5106226;28;20695;-79
2021/12/24 00:16:05;;;;;;;49.33;23.80;;;;;;;;;;5097205;28;20191;-79
2021/12/24 00:18:41;;;;;;;50.27;22.53;;;;;;;;;;5103445;28;20280;-79
2021/12/24 00:35:16;;;;;;;59.50;22.73;;;;;;;;;;5063850;28;20233;-79
2021/12/24 00:37:44;;;;;;;60.97;24.00;;;;;;;;;;5052369;28;20207;-80
2021/12/24 00:40:17;;;;;;;55.33;24.80;;;;;;;;;;5054171;28;20226;-79
2021/12/24 00:42:46;;;;;;;67.77;24.57;;;;;;;;;;5063054;28;20274;-79
2021/12/24 00:45:15;;;;;;;61.47;24.03;;;;;;;;;;5060244;28;20231;-79
2021/12/24 00:47:42;;;;;;;57.53;23.97;;;;;;;;;;5060592;28;20231;-79
2021/12/24 00:50:13;;;;;;;51.53;23.93;;;;;;;;;;5057906;28;20281;-80
2021/12/24 00:52:48;;;;;;;49.63;23.03;;;;;;;;;;5058260;28;20198;-80
2021/12/24 00:55:15;;;;;;;63.90;23.57;;;;;;;;;;5057935;28;20699;-79
2021/12/24 00:57:43;;;;;;;68.60;23.93;;;;;;;;;;5052081;28;20285;-79
2021/12/24 01:00:12;;;;;;;59.30;24.40;;;;;;;;;;5065469;28;20303;-79
2021/12/24 01:02:39;;;;;;;143.00;25.53;;;;;;;;;;5065335;28;20281;-80
2021/12/24 01:05:07;;;;;;;67.10;24.43;;;;;;;;;;5105780;28;20243;-79
2021/12/24 01:07:35;;;;;;;83.10;23.43;;;;;;;;;;5104141;28;20281;-80
2021/12/24 01:10:04;;;;;;;140.40;25.80;;;;;;;;;;5100460;28;20253;-79
2021/12/24 01:12:31;;;;;;;167.60;25.73;;;;;;;;;;5106482;28;20290;-79
2021/12/24 01:14:58;;;;;;;89.90;24.27;;;;;;;;;;5108938;28;20282;-79
2021/12/24 01:17:39;;;;;;;53.83;24.23;;;;;;;;;;5093476;28;20284;-79
2021/12/24 01:20:15;;;;;;;55.80;24.67;;;;;;;;;;5108921;28;20234;-78
2021/12/24 01:23:26;;;;;;;52.03;24.57;;;;;;;;;;5101730;28;20277;-78
2021/12/24 01:25:58;;;;;;;56.97;23.57;;;;;;;;;;5099008;28;20201;-78
2021/12/24 01:39:42;;;;;;;80.33;23.00;;;;;;;;;;5092999;28;20243;-78
2021/12/24 01:44:56;;;;;;;90.93;24.00;;;;;;;;;;5113037;28;20201;-78
2021/12/24 01:47:23;;;;;;;72.90;24.50;;;;;;;;;;5112398;28;20224;-78
2021/12/24 01:49:50;;;;;;;88.43;25.63;;;;;;;;;;5104936;28;20290;-78
2021/12/24 01:52:18;;;;;;;77.53;24.93;;;;;;;;;;5097088;28;20229;-78
2021/12/24 01:54:46;;;;;;;79.07;23.67;;;;;;;;;;5107741;28;20287;-78
2021/12/24 01:57:14;;;;;;;62.50;22.93;;;;;;;;;;5108974;28;20299;-78
2021/12/24 01:59:42;;;;;;;48.60;22.27;;;;;;;;;;5098163;28;20298;-77
2021/12/24 02:02:09;;;;;;;110.83;23.97;;;;;;;;;;5103545;28;20726;-78
2021/12/24 02:04:36;;;;;;;53.57;21.60;;;;;;;;;;5093077;28;20288;-78
2021/12/24 02:07:04;;;;;;;54.10;23.13;;;;;;;;;;5092821;28;20281;-78
2021/12/24 02:09:31;;;;;;;90.37;23.37;;;;;;;;;;5095374;28;20284;-78
2021/12/24 02:11:59;;;;;;;62.13;22.83;;;;;;;;;;5107437;28;20573;-78
2021/12/24 02:14:34;;;;;;;64.80;23.60;;;;;;;;;;5109326;28;20230;-78
2021/12/24 02:17:28;;;;;;;65.33;23.93;;;;;;;;;;5092448;28;20731;-78
2021/12/24 02:28:28;;;;;;;81.77;24.90;;;;;;;;;;5110174;28;20193;-78
2021/12/24 02:30:56;;;;;;;67.67;24.37;;;;;;;;;;5097171;28;20194;-78
2021/12/24 02:33:24;;;;;;;99.00;25.60;;;;;;;;;;5100542;28;20285;-78
2021/12/24 02:35:53;;;;;;;75.90;25.13;;;;;;;;;;5098610;28;20236;-77
2021/12/24 02:38:20;;;;;;;89.37;25.77;;;;;;;;;;5092738;28;20637;-78
2021/12/24 02:40:47;;;;;;;76.00;25.30;;;;;;;;;;5107684;28;20248;-78
2021/12/24 02:43:18;;;;;;;97.50;25.80;;;;;;;;;;5096401;28;20289;-78
2021/12/24 02:45:47;;;;;;;124.37;25.90;;;;;;;;;;5094756;28;20197;-78
2021/12/24 02:48:47;;;;;;;89.07;24.67;;;;;;;;;;5112043;28;20676;-78
2021/12/24 02:53:59;;;;;;;76.03;25.10;;;;;;;;;;5093538;28;20207;-78
2021/12/24 02:56:29;;;;;;;85.83;25.00;;;;;;;;;;5109424;28;20217;-78
2021/12/24 02:58:57;;;;;;;128.47;25.50;;;;;;;;;;5103490;28;20212;-80
2021/12/24 03:01:25;;;;;;;122.47;26.77;;;;;;;;;;5101784;28;20310;-78
2021/12/24 03:03:52;;;;;;;86.53;26.53;;;;;;;;;;5110487;28;20284;-78
2021/12/24 03:06:22;;;;;;;74.30;23.83;;;;;;;;;;5101001;28;20425;-79
2021/12/24 03:08:49;;;;;;;91.60;26.50;;;;;;;;;;5093250;28;20232;-78
2021/12/24 03:11:17;;;;;;;105.73;24.57;;;;;;;;;;5106572;28;20201;-78
2021/12/24 03:13:44;;;;;;;77.13;23.17;;;;;;;;;;5096345;28;20255;-78
2021/12/24 03:16:11;;;;;;;101.77;24.90;;;;;;;;;;5099537;28;20249;-78
2021/12/24 03:18:42;;;;;;;89.20;25.30;;;;;;;;;;5112393;28;20241;-80
2021/12/24 03:21:14;;;;;;;101.30;25.20;;;;;;;;;;5099396;28;20212;-80
2021/12/24 03:23:45;;;;;;;83.50;24.60;;;;;;;;;;5091668;28;20681;-81
2021/12/24 03:26:14;;;;;;;115.30;26.07;;;;;;;;;;5079321;28;20206;-79
2021/12/24 03:28:41;;;;;;;103.47;26.37;;;;;;;;;;5099436;28;20229;-78
2021/12/24 03:31:09;;;;;;;81.83;25.27;;;;;;;;;;5106192;28;20230;-77
2021/12/24 03:33:37;;;;;;;150.97;27.40;;;;;;;;;;5111607;28;20293;-78
2021/12/24 03:36:06;;;;;;;79.00;22.73;;;;;;;;;;5111151;28;20207;-78
2021/12/24 03:38:34;;;;;;;155.00;26.87;;;;;;;;;;5111062;28;20292;-78
2021/12/24 03:41:02;;;;;;;146.33;26.47;;;;;;;;;;5093415;28;20300;-78
2021/12/24 03:43:30;;;;;;;130.80;26.13;;;;;;;;;;5091784;28;20249;-78
2021/12/24 03:46:01;;;;;;;136.10;25.60;;;;;;;;;;5091762;28;20237;-80
2021/12/24 03:48:42;;;;;;;139.40;26.63;;;;;;;;;;5083350;28;20199;-81
2021/12/24 03:51:26;;;;;;;90.00;25.53;;;;;;;;;;5095271;28;20197;-78
2021/12/24 03:56:40;;;;;;;121.47;25.20;;;;;;;;;;5102207;28;20215;-79
2021/12/24 03:59:08;;;;;;;93.33;22.53;;;;;;;;;;5111382;28;20201;-78
2021/12/24 04:01:36;;;;;;;124.40;25.93;;;;;;;;;;5111531;28;20296;-78
2021/12/24 04:04:04;;;;;;;112.40;23.63;;;;;;;;;;5105920;28;20195;-78
2021/12/24 04:06:31;;;;;;;103.90;23.73;;;;;;;;;;5094937;28;20233;-78
2021/12/24 04:08:59;;;;;;;110.20;22.13;;;;;;;;;;5102068;28;20276;-78
2021/12/24 04:11:26;;;;;;;135.03;24.73;;;;;;;;;;5104646;28;20285;-78
2021/12/24 04:13:54;;;;;;;171.97;23.63;;;;;;;;;;5108956;28;20236;-77
2021/12/24 04:16:21;;;;;;;156.43;22.93;;;;;;;;;;5113380;28;20211;-78
2021/12/24 04:18:56;;;;;;;211.90;23.67;;;;;;;;;;5095102;28;20225;-78
2021/12/24 04:26:53;;;;;;;228.30;25.70;;;;;;;;;;5101569;28;20243;-78
2021/12/24 04:29:22;;;;;;;169.47;24.37;;;;;;;;;;5111749;28;20288;-79
2021/12/24 04:31:55;;;;;;;210.13;23.50;;;;;;;;;;5110507;28;20218;-79
2021/12/24 04:34:26;;;;;;;128.77;22.43;;;;;;;;;;5103089;28;20731;-78
2021/12/24 04:37:32;;;;;;;169.43;24.37;;;;;;;;;;5112379;28;20201;-78
2021/12/24 04:39:55;;;;;;;111.27;22.77;;;;;;;;;;5078726;28;20568;-78
2021/12/24 05:01:13;;;;;;;229.83;24.80;;;;;;;;;;5092145;28;20239;-79
2021/12/24 05:01:52;;;;;;;293.80;27.57;;;;;;;;;;5103942;28;20270;-79
2021/12/24 05:04:26;;;;;;;147.90;23.27;;;;;;;;;;5108960;28;20192;-79
2021/12/24 05:07:02;;;;;;;202.17;25.00;;;;;;;;;;5112614;28;20193;-78
2021/12/24 05:09:31;;;;;;;175.50;22.20;;;;;;;;;;5108238;28;20208;-78
2021/12/24 05:11:58;;;;;;;191.30;23.33;;;;;;;;;;5114622;28;20665;-79
2021/12/24 05:14:30;;;;;;;160.83;22.07;;;;;;;;;;5098355;28;20285;-78
2021/12/24 05:17:17;;;;;;;173.60;23.97;;;;;;;;;;5113390;28;20324;-78
2021/12/24 05:22:31;;;;;;;256.57;26.10;;;;;;;;;;5087064;28;20239;-78
2021/12/24 05:24:58;;;;;;;209.30;25.33;;;;;;;;;;5093974;28;20289;-79
2021/12/24 05:27:25;;;;;;;248.17;26.37;;;;;;;;;;5101406;28;20285;-79
2021/12/24 05:29:54;;;;;;;232.03;25.60;;;;;;;;;;5096226;28;20339;-79
2021/12/24 05:32:22;;;;;;;239.67;27.60;;;;;;;;;;5093851;28;20241;-79
2021/12/24 05:34:49;;;;;;;181.70;26.60;;;;;;;;;;5101292;28;20309;-78
2021/12/24 05:37:17;;;;;;;169.90;26.67;;;;;;;;;;5095727;28;20297;-78
2021/12/24 05:39:44;;;;;;;200.97;27.87;;;;;;;;;;5093581;28;20320;-79
2021/12/24 05:42:11;;;;;;;163.47;27.60;;;;;;;;;;5093437;28;20260;-78
2021/12/24 05:44:38;;;;;;;132.67;26.07;;;;;;;;;;5109844;28;20859;-78
2021/12/24 05:47:06;;;;;;;121.03;26.27;;;;;;;;;;5103337;28;20233;-79
2021/12/24 05:49:35;;;;;;;163.67;25.07;;;;;;;;;;5106914;28;20288;-78
2021/12/24 05:52:02;;;;;;;227.33;27.27;;;;;;;;;;5113681;28;20201;-78
2021/12/24 05:54:29;;;;;;;89.00;23.27;;;;;;;;;;5112961;28;20280;-80
2021/12/24 05:56:57;;;;;;;110.30;23.27;;;;;;;;;;5112970;28;20864;-79
2021/12/24 05:59:24;;;;;;;91.90;22.10;;;;;;;;;;5093510;28;20629;-79
2021/12/24 06:01:51;;;;;;;123.87;23.17;;;;;;;;;;5100360;28;20588;-79
2021/12/24 06:04:18;;;;;;;102.07;21.97;;;;;;;;;;5102502;28;20226;-79
2021/12/24 06:06:47;;;;;;;87.07;19.77;;;;;;;;;;5107199;28;20229;-79
2021/12/24 06:09:14;;;;;;;76.67;20.53;;;;;;;;;;5103159;28;20811;-79
2021/12/24 06:11:41;;;;;;;61.07;19.27;;;;;;;;;;5101085;28;20637;-79
2021/12/24 06:14:11;;;;;;;97.90;19.73;;;;;;;;;;5103296;28;20217;-79
2021/12/24 06:16:47;;;;;;;204.20;23.97;;;;;;;;;;5111588;28;20194;-78
2021/12/24 06:19:14;;;;;;;173.03;22.47;;;;;;;;;;5103062;28;20202;-79
2021/12/24 06:21:41;;;;;;;176.23;23.07;;;;;;;;;;5105744;28;20256;-79
2021/12/24 06:24:12;;;;;;;140.23;22.93;;;;;;;;;;5095876;28;20201;-78
2021/12/24 06:26:39;;;;;;;106.67;22.67;;;;;;;;;;5092847;28;20202;-78
2021/12/24 06:29:06;;;;;;;232.47;25.73;;;;;;;;;;5105581;28;20374;-79
2021/12/24 06:31:34;;;;;;;168.00;25.17;;;;;;;;;;5103306;28;20194;-79
2021/12/24 06:34:01;;;;;;;151.90;27.37;;;;;;;;;;5110587;28;20264;-79
2021/12/24 06:36:30;;;;;;;232.17;28.83;;;;;;;;;;5112725;28;20288;-79
2021/12/24 06:38:57;;;;;;;300.07;29.63;;;;;;;;;;5112381;28;20620;-79
2021/12/24 06:41:26;;;;;;;347.37;30.40;;;;;;;;;;5110966;28;20313;-79
2021/12/24 06:43:54;;;;;;;176.30;29.53;;;;;;;;;;5092456;28;20307;-79
2021/12/24 06:46:21;;;;;;;231.37;31.40;;;;;;;;;;5101378;28;20649;-79
2021/12/24 06:48:53;;;;;;;342.07;32.30;;;;;;;;;;5108085;28;20229;-79
2021/12/24 06:51:20;;;;;;;420.30;33.13;;;;;;;;;;5092380;28;20185;-79
2021/12/24 06:53:47;;;;;;;204.47;30.30;;;;;;;;;;5103858;28;20236;-79
2021/12/24 06:56:15;;;;;;;207.33;30.07;;;;;;;;;;5111763;28;20256;-79
2021/12/24 06:58:43;;;;;;;96.10;26.37;;;;;;;;;;5112273;28;20292;-79
2021/12/24 07:01:10;;;;;;;94.07;25.97;;;;;;;;;;5096892;28;20284;-79
2021/12/24 07:03:38;;;;;;;102.40;25.93;;;;;;;;;;5092016;28;20673;-79
2021/12/24 07:06:05;;;;;;;105.30;25.53;;;;;;;;;;5103165;28;20293;-79
2021/12/24 07:08:33;;;;;;;141.63;27.63;;;;;;;;;;5112192;28;20272;-79
2021/12/24 07:11:00;;;;;;;148.73;27.07;;;;;;;;;;5099755;28;20296;-79
2021/12/24 07:13:28;;;;;;;99.77;26.63;;;;;;;;;;5108408;28;20229;-79
2021/12/24 07:15:56;;;;;;;141.10;27.83;;;;;;;;;;5104292;28;20196;-78
2021/12/24 07:18:23;;;;;;;94.70;25.73;;;;;;;;;;5102417;28;20287;-78
2021/12/24 07:20:51;;;;;;;80.50;26.60;;;;;;;;;;5110311;28;20221;-78
2021/12/24 07:23:18;;;;;;;81.57;26.23;;;;;;;;;;5109988;28;20308;-78
2021/12/24 07:25:46;;;;;;;73.93;25.80;;;;;;;;;;5102205;28;20216;-78
2021/12/24 07:28:14;;;;;;;127.67;26.93;;;;;;;;;;5099761;28;20698;-78
2021/12/24 07:30:41;;;;;;;128.87;26.80;;;;;;;;;;5094377;28;20288;-79
2021/12/24 07:33:14;;;;;;;89.70;25.47;;;;;;;;;;5106575;28;20293;-79
2021/12/24 07:35:42;;;;;;;122.23;26.83;;;;;;;;;;5096509;28;20203;-78
2021/12/24 07:38:09;;;;;;;134.43;26.07;;;;;;;;;;5103723;28;20305;-78
2021/12/24 07:40:38;;;;;;;239.03;27.37;;;;;;;;;;5103930;28;20193;-77
2021/12/24 07:43:06;;;;;;;168.67;27.50;;;;;;;;;;5095559;28;20226;-79
2021/12/24 07:45:33;;;;;;;142.27;26.30;;;;;;;;;;5102692;28;20197;-78
2021/12/24 07:48:10;;;;;;;88.93;25.10;;;;;;;;;;5104211;28;20748;-78
2021/12/24 07:53:24;;;;;;;101.93;24.53;;;;;;;;;;5094756;28;20220;-78
2021/12/24 07:55:53;;;;;;;200.33;26.57;;;;;;;;;;5097551;28;20595;-78
2021/12/24 07:58:21;;;;;;;118.10;24.17;;;;;;;;;;5098528;28;20193;-77
2021/12/24 08:00:48;;;;;;;95.80;24.57;;;;;;;;;;5113164;28;20668;-78
2021/12/24 08:03:16;;;;;;;92.30;24.47;;;;;;;;;;5103304;28;20748;-78
2021/12/24 08:05:46;;;;;;;129.77;26.90;;;;;;;;;;5107171;28;20232;-78
2021/12/24 08:08:13;;;;;;;119.43;26.63;;;;;;;;;;5112217;28;20202;-78
2021/12/24 08:10:41;;;;;;;144.30;26.07;;;;;;;;;;5100998;28;20237;-77
2021/12/24 08:13:09;;;;;;;214.17;27.27;;;;;;;;;;5096707;28;20198;-77
2021/12/24 08:15:36;;;;;;;243.87;28.90;;;;;;;;;;5091457;28;20327;-77
2021/12/24 08:18:04;;;;;;;343.07;29.93;;;;;;;;;;5099015;28;20225;-78
2021/12/24 08:20:31;;;;;;;379.40;30.93;;;;;;;;;;5094796;28;20661;-78
2021/12/24 08:22:59;;;;;;;240.07;28.63;;;;;;;;;;5094397;28;20258;-78
2021/12/24 08:25:27;;;;;;;154.90;27.03;;;;;;;;;;5093934;28;20233;-78
2021/12/24 08:27:55;;;;;;;86.43;25.73;;;;;;;;;;5093991;28;20233;-78
2021/12/24 08:30:22;;;;;;;89.93;25.80;;;;;;;;;;5093999;28;20653;-78
2021/12/24 08:32:49;;;;;;;96.00;26.30;;;;;;;;;;5097916;28;20225;-77
2021/12/24 08:35:20;;;;;;;84.10;25.90;;;;;;;;;;5093837;28;20324;-78
2021/12/24 08:37:47;;;;;;;134.53;27.57;;;;;;;;;;5089243;28;20197;-78
2021/12/24 08:40:16;;;;;;;70.63;24.07;;;;;;;;;;5102560;28;20273;-78
2021/12/24 08:42:43;;;;;;;108.37;25.57;;;;;;;;;;5094232;28;20260;-77
2021/12/24 08:45:11;;;;;;;76.80;24.87;;;;;;;;;;5111053;28;20204;-78
2021/12/24 08:47:38;;;;;;;79.47;23.87;;;;;;;;;;5093922;28;20306;-77
2021/12/24 08:50:06;;;;;;;86.03;23.67;;;;;;;;;;5098718;28;20284;-78
2021/12/24 08:52:33;;;;;;;84.83;23.60;;;;;;;;;;5105784;28;20194;-78
2021/12/24 08:55:01;;;;;;;116.33;29.27;;;;;;;;;;5094145;28;20327;-78
2021/12/24 08:57:30;;;;;;;69.97;22.73;;;;;;;;;;5103885;28;20304;-78
2021/12/24 08:59:57;;;;;;;64.27;21.87;;;;;;;;;;5087101;28;20205;-77
2021/12/24 09:02:24;;;;;;;63.83;21.70;;;;;;;;;;5109650;28;20768;-78
2021/12/24 09:04:51;;;;;;;64.47;22.87;;;;;;;;;;5100233;28;20284;-78
2021/12/24 09:07:18;;;;;;;82.43;22.77;;;;;;;;;;5095368;28;20252;-77
2021/12/24 09:09:46;;;;;;;67.23;23.83;;;;;;;;;;5095254;28;20293;-78
2021/12/24 09:12:13;;;;;;;70.77;25.70;;;;;;;;;;5107278;28;20216;-77
2021/12/24 09:14:42;;;;;;;78.90;24.57;;;;;;;;;;5098057;28;20284;-78
2021/12/24 09:17:09;;;;;;;70.90;22.70;;;;;;;;;;5100474;28;20285;-78
2021/12/24 09:19:44;;;;;;;63.97;23.40;;;;;;;;;;5109244;28;20236;-78
2021/12/24 09:22:16;;;;;;;61.57;21.80;;;;;;;;;;5085689;28;20201;-78
2021/12/24 09:24:43;;;;;;;70.33;21.13;;;;;;;;;;5098624;28;20281;-77
2021/12/24 09:27:11;;;;;;;61.67;20.60;;;;;;;;;;5103787;28;20637;-78
2021/12/24 09:29:38;;;;;;;55.57;20.43;;;;;;;;;;5092682;28;20200;-78
2021/12/24 09:32:07;;;;;;;71.03;22.20;;;;;;;;;;5095081;28;20226;-78
2021/12/24 09:34:34;;;;;;;83.23;21.57;;;;;;;;;;5104479;28;20253;-78
2021/12/24 09:37:01;;;;;;;98.90;22.43;;;;;;;;;;5093553;28;20281;-77
2021/12/24 09:39:29;;;;;;;88.57;22.07;;;;;;;;;;5102191;28;20263;-78
2021/12/24 09:41:56;;;;;;;83.43;21.50;;;;;;;;;;5099119;28;20217;-79
2021/12/24 09:44:23;;;;;;;76.70;21.13;;;;;;;;;;5112452;28;20783;-78
2021/12/24 09:46:51;;;;;;;67.83;20.47;;;;;;;;;;5100330;28;20641;-79
2021/12/24 09:49:20;;;;;;;58.60;18.47;;;;;;;;;;5101373;28;20288;-77
2021/12/24 09:51:50;;;;;;;49.20;17.40;;;;;;;;;;5112878;28;20200;-78
2021/12/24 09:54:18;;;;;;;43.47;17.00;;;;;;;;;;5110537;28;20229;-78
2021/12/24 09:56:45;;;;;;;45.37;17.93;;;;;;;;;;5106361;28;20304;-78
2021/12/24 09:59:13;;;;;;;45.63;18.70;;;;;;;;;;5102576;28;20202;-78
2021/12/24 10:01:43;;;;;;;47.10;19.17;;;;;;;;;;5096869;28;20275;-78
2021/12/24 10:04:11;;;;;;;55.10;19.27;;;;;;;;;;5104265;28;20218;-78
2021/12/24 10:06:40;;;;;;;48.57;19.80;;;;;;;;;;5096744;28;20765;-78
2021/12/24 10:09:09;;;;;;;56.00;20.47;;;;;;;;;;5103842;28;20258;-78
2021/12/24 10:11:47;;;;;;;64.43;20.07;;;;;;;;;;5099332;28;20607;-78
2021/12/24 10:14:15;;;;;;;66.43;20.07;;;;;;;;;;5100265;28;20197;-78
2021/12/24 10:16:43;;;;;;;51.67;19.57;;;;;;;;;;5093318;28;20244;-78
2021/12/24 10:19:10;;;;;;;63.63;21.70;;;;;;;;;;5094508;28;20215;-78
2021/12/24 10:21:38;;;;;;;61.97;21.73;;;;;;;;;;5095182;28;20290;-78
2021/12/24 10:24:12;;;;;;;69.20;20.70;;;;;;;;;;5103649;28;20217;-79
2021/12/24 10:26:40;;;;;;;62.30;21.73;;;;;;;;;;5100958;28;20276;-79
2021/12/24 10:29:08;;;;;;;68.13;22.17;;;;;;;;;;5099470;28;20281;-78
2021/12/24 10:31:37;;;;;;;53.77;21.27;;;;;;;;;;5093663;28;20585;-78
2021/12/24 10:34:05;;;;;;;52.30;20.53;;;;;;;;;;5101583;28;20229;-78
2021/12/24 10:36:32;;;;;;;56.37;21.40;;;;;;;;;;5101544;28;20212;-78
2021/12/24 10:38:59;;;;;;;49.73;21.33;;;;;;;;;;5099479;28;20288;-78
2021/12/24 10:41:30;;;;;;;52.50;20.87;;;;;;;;;;5092801;28;20202;-78
2021/12/24 10:43:57;;;;;;;47.27;20.27;;;;;;;;;;5099725;28;20211;-78
2021/12/24 10:46:24;;;;;;;52.57;20.90;;;;;;;;;;5096882;28;20269;-78
2021/12/24 10:49:02;;;;;;;50.57;21.80;;;;;;;;;;5103854;28;20289;-78
2021/12/24 10:51:54;;;;;;;48.97;22.83;;;;;;;;;;5112326;28;20208;-78
2021/12/24 10:54:21;;;;;;;47.10;22.70;;;;;;;;;;5104601;28;20261;-78
2021/12/24 10:56:50;;;;;;;59.07;24.13;;;;;;;;;;5094257;28;20214;-78
2021/12/24 10:59:17;;;;;;;57.03;24.80;;;;;;;;;;5107213;28;20225;-78
2021/12/24 11:01:44;;;;;;;58.77;24.57;;;;;;;;;;5102571;28;20576;-78
2021/12/24 11:04:11;;;;;;;52.63;25.33;;;;;;;;;;5094613;28;20272;-78
2021/12/24 11:06:39;;;;;;;50.73;24.80;;;;;;;;;;5107075;28;20277;-78
2021/12/24 11:09:07;;;;;;;39.57;23.20;;;;;;;;;;5096354;28;20673;-79
2021/12/24 11:11:35;;;;;;;41.27;23.10;;;;;;;;;;5107661;28;20285;-78
2021/12/24 11:14:04;;;;;;;35.50;20.10;;;;;;;;;;5099964;28;20186;-78
2021/12/24 11:16:33;;;;;;;32.27;19.00;;;;;;;;;;5094618;28;20648;-78
2021/12/24 11:19:01;;;;;;;34.13;20.00;;;;;;;;;;5095311;28;20191;-78
2021/12/24 11:21:29;;;;;;;32.77;19.03;;;;;;;;;;5105826;28;20285;-78
2021/12/24 11:23:57;;;;;;;36.90;21.17;;;;;;;;;;5099521;28;20308;-78
2021/12/24 11:26:27;;;;;;;39.23;22.43;;;;;;;;;;5104015;28;20221;-79
2021/12/24 11:28:54;;;;;;;46.80;24.20;;;;;;;;;;5103982;28;20197;-79
2021/12/24 11:31:24;;;;;;;43.47;23.07;;;;;;;;;;5099804;28;20273;-78
2021/12/24 11:33:52;;;;;;;48.73;24.40;;;;;;;;;;5106739;28;20308;-78
2021/12/24 11:36:21;;;;;;;46.83;24.53;;;;;;;;;;5107786;28;20194;-78
2021/12/24 11:38:49;;;;;;;49.10;24.73;;;;;;;;;;5094280;28;20194;-78
2021/12/24 11:41:17;;;;;;;39.07;21.87;;;;;;;;;;5110065;28;20281;-78
2021/12/24 11:43:45;;;;;;;40.13;22.40;;;;;;;;;;5093428;28;20216;-78
2021/12/24 11:46:17;;;;;;;36.80;21.17;;;;;;;;;;5095945;28;20262;-78
2021/12/24 11:48:47;;;;;;;32.90;21.53;;;;;;;;;;5110796;28;20198;-78
2021/12/24 11:51:16;;;;;;;35.60;22.00;;;;;;;;;;5096702;28;20251;-78
2021/12/24 11:53:44;;;;;;;38.23;23.17;;;;;;;;;;5091443;28;20234;-78
2021/12/24 11:56:12;;;;;;;36.57;22.03;;;;;;;;;;5100843;28;20665;-78
2021/12/24 11:58:43;;;;;;;38.10;23.17;;;;;;;;;;5103634;28;20224;-79
2021/12/24 12:01:10;;;;;;;36.43;22.80;;;;;;;;;;5096751;28;20226;-78
2021/12/24 12:03:39;;;;;;;37.77;22.80;;;;;;;;;;5095242;28;20655;-79
2021/12/24 12:06:10;;;;;;;35.03;21.53;;;;;;;;;;5102626;28;20280;-78
2021/12/24 12:08:39;;;;;;;36.53;22.30;;;;;;;;;;5112014;28;20288;-78
2021/12/24 12:11:18;;;;;;;34.37;22.87;;;;;;;;;;5110288;28;20216;-78
2021/12/24 12:13:47;;;;;;;33.70;20.40;;;;;;;;;;5092006;28;20297;-77
2021/12/24 12:16:15;;;;;;;34.97;21.80;;;;;;;;;;5090661;28;20288;-78
2021/12/24 12:18:49;;;;;;;34.13;20.67;;;;;;;;;;5097053;28;20683;-78
2021/12/24 12:21:26;;;;;;;29.73;20.97;;;;;;;;;;5100696;28;20202;-78
2021/12/24 12:24:57;;;;;;;30.53;20.00;;;;;;;;;;5105732;28;20209;-77
2021/12/24 12:26:54;;;;;;;31.83;18.97;;;;;;;;;;5102496;28;20203;-78
2021/12/24 12:29:33;;;;;;;30.63;20.77;;;;;;;;;;5105032;28;20297;-78
2021/12/24 12:32:05;;;;;;;28.77;19.50;;;;;;;;;;5098716;28;20284;-77
2021/12/24 12:34:55;;;;;;;32.63;20.83;;;;;;;;;;5094326;28;20305;-78
2021/12/24 12:37:25;;;;;;;24.83;17.33;;;;;;;;;;5113676;28;20286;-77
2021/12/24 12:39:53;;;;;;;28.70;19.27;;;;;;;;;;5105745;28;20276;-78
2021/12/24 12:42:23;;;;;;;25.73;19.30;;;;;;;;;;5107749;28;20289;-78
2021/12/24 12:44:51;;;;;;;25.97;19.20;;;;;;;;;;5110209;28;20210;-78
2021/12/24 12:47:21;;;;;;;28.17;18.77;;;;;;;;;;5097662;28;20630;-78
2021/12/24 12:49:48;;;;;;;28.20;19.07;;;;;;;;;;5095685;28;20246;-78
2021/12/24 12:52:29;;;;;;;27.10;18.40;;;;;;;;;;5108336;28;20456;-78
2021/12/24 12:54:58;;;;;;;26.40;18.57;;;;;;;;;;5097967;28;20202;-78
2021/12/24 12:57:27;;;;;;;26.03;20.10;;;;;;;;;;5110595;28;20209;-77
2021/12/24 13:00:17;;;;;;;26.07;18.20;;;;;;;;;;5095271;28;20281;-78
2021/12/24 13:03:07;;;;;;;28.57;19.00;;;;;;;;;;5088979;28;20194;-78
2021/12/24 13:05:35;;;;;;;26.10;18.87;;;;;;;;;;5109773;28;20213;-78
2021/12/24 13:08:13;;;;;;;27.57;19.10;;;;;;;;;;5109476;28;20308;-80
2021/12/24 13:10:40;;;;;;;25.80;18.13;;;;;;;;;;5114269;28;20201;-80
2021/12/24 13:13:08;;;;;;;25.03;18.63;;;;;;;;;;5114257;28;20204;-79
2021/12/24 13:15:44;;;;;;;27.63;19.37;;;;;;;;;;5114847;28;20294;-80
2021/12/24 13:18:24;;;;;;;24.23;17.97;;;;;;;;;;5114137;28;20198;-80
2021/12/24 13:23:34;;;;;;;26.37;18.47;;;;;;;;;;5113777;28;20225;-80
2021/12/24 13:26:08;;;;;;;25.90;18.47;;;;;;;;;;5114429;28;20292;-80
2021/12/24 13:28:35;;;;;;;27.33;18.07;;;;;;;;;;5114439;28;20606;-80
2021/12/24 13:31:13;;;;;;;24.03;17.73;;;;;;;;;;5114403;28;20203;-80
2021/12/24 13:33:41;;;;;;;26.33;19.40;;;;;;;;;;5113996;28;20257;-80
2021/12/24 13:36:08;;;;;;;28.80;20.10;;;;;;;;;;5112734;28;20288;-80
2021/12/24 13:38:36;;;;;;;27.30;19.63;;;;;;;;;;5114224;28;20229;-80
2021/12/24 13:41:05;;;;;;;29.50;20.10;;;;;;;;;;5114003;28;20721;-80
2021/12/24 13:43:37;;;;;;;30.03;20.90;;;;;;;;;;5113878;28;20221;-80
2021/12/24 13:46:08;;;;;;;26.57;18.60;;;;;;;;;;5114072;28;20330;-80
2021/12/24 13:48:47;;;;;;;27.43;19.73;;;;;;;;;;5113997;28;20201;-80
2021/12/24 13:56:48;;;;;;;34.60;22.23;;;;;;;;;;5113768;28;20223;-80
2021/12/24 13:59:16;;;;;;;29.00;19.47;;;;;;;;;;5114187;28;20197;-81
2021/12/24 14:01:44;;;;;;;26.93;20.03;;;;;;;;;;5113456;28;20226;-80
2021/12/24 14:04:12;;;;;;;29.73;20.20;;;;;;;;;;5101540;28;20344;-81
2021/12/24 14:06:40;;;;;;;27.77;19.70;;;;;;;;;;5093076;28;20228;-80
2021/12/24 14:09:12;;;;;;;26.07;18.57;;;;;;;;;;5093011;28;20255;-80
2021/12/24 14:11:40;;;;;;;26.10;19.70;;;;;;;;;;5093145;28;20290;-80
2021/12/24 14:14:12;;;;;;;26.87;19.23;;;;;;;;;;5092980;28;20305;-80
2021/12/24 14:16:54;;;;;;;26.53;19.13;;;;;;;;;;5092850;28;20203;-80
2021/12/24 14:19:31;;;;;;;31.50;21.20;;;;;;;;;;5092686;28;20711;-80
2021/12/24 14:22:06;;;;;;;27.37;19.57;;;;;;;;;;5101817;28;20200;-80
2021/12/24 14:24:36;;;;;;;29.37;21.10;;;;;;;;;;5111260;28;20293;-80
2021/12/24 14:27:05;;;;;;;30.43;21.77;;;;;;;;;;5112906;28;20211;-81
2021/12/24 14:29:34;;;;;;;27.50;20.60;;;;;;;;;;5111792;28;20751;-80
2021/12/24 14:32:02;;;;;;;28.70;19.93;;;;;;;;;;5112633;28;20280;-80
2021/12/24 14:34:34;;;;;;;30.93;20.70;;;;;;;;;;5112719;28;20264;-80
2021/12/24 14:37:02;;;;;;;31.17;20.73;;;;;;;;;;5111614;28;20231;-80
2021/12/24 14:39:36;;;;;;;29.30;20.67;;;;;;;;;;5112970;28;20193;-81
2021/12/24 14:42:13;;;;;;;33.40;21.20;;;;;;;;;;5112454;28;20285;-81
2021/12/24 14:44:40;;;;;;;29.97;20.70;;;;;;;;;;5112897;28;20252;-81
2021/12/24 14:47:08;;;;;;;29.33;20.37;;;;;;;;;;5112698;28;20676;-80
2021/12/24 14:49:36;;;;;;;27.83;20.43;;;;;;;;;;5112627;28;20288;-80
2021/12/24 14:52:16;;;;;;;33.53;21.33;;;;;;;;;;5112514;28;20233;-80
2021/12/24 14:55:02;;;;;;;32.37;21.93;;;;;;;;;;5113064;28;20224;-80
2021/12/24 14:57:32;;;;;;;29.37;20.63;;;;;;;;;;5112745;28;20276;-80
2021/12/24 15:00:05;;;;;;;31.33;22.13;;;;;;;;;;5112603;28;20201;-81
2021/12/24 15:02:32;;;;;;;31.40;21.33;;;;;;;;;;5112576;28;20214;-81
2021/12/24 15:04:59;;;;;;;32.23;21.87;;;;;;;;;;5112718;28;20313;-81
2021/12/24 15:07:33;;;;;;;32.17;21.83;;;;;;;;;;5104580;28;20292;-80
2021/12/24 15:10:10;;;;;;;35.73;22.03;;;;;;;;;;5091680;28;20748;-80
2021/12/24 15:12:45;;;;;;;30.73;22.20;;;;;;;;;;5094473;28;20213;-81
2021/12/24 15:15:12;;;;;;;42.57;25.53;;;;;;;;;;5112052;28;20193;-80
2021/12/24 15:17:40;;;;;;;44.30;30.13;;;;;;;;;;5112398;28;20229;-81
2021/12/24 15:20:08;;;;;;;38.73;26.70;;;;;;;;;;5112376;28;20198;-81
2021/12/24 15:22:35;;;;;;;43.80;28.90;;;;;;;;;;5111849;28;20300;-81
2021/12/24 15:25:05;;;;;;;34.70;26.03;;;;;;;;;;5097268;28;20292;-80
2021/12/24 15:27:34;;;;;;;38.37;25.77;;;;;;;;;;5112352;28;20913;-80
2021/12/24 15:30:03;;;;;;;38.50;25.17;;;;;;;;;;5098146;28;20551;-80
2021/12/24 15:32:30;;;;;;;40.67;27.80;;;;;;;;;;5092057;28;20226;-80
2021/12/24 15:34:57;;;;;;;34.87;25.37;;;;;;;;;;5091747;28;20226;-80
2021/12/24 15:37:25;;;;;;;37.37;26.33;;;;;;;;;;5091866;28;20288;-80
2021/12/24 15:39:52;;;;;;;36.37;24.53;;;;;;;;;;5092292;28;20198;-81
2021/12/24 15:42:20;;;;;;;38.40;26.00;;;;;;;;;;5108096;28;20229;-80
2021/12/24 15:44:48;;;;;;;36.33;25.27;;;;;;;;;;5112083;28;20622;-81
2021/12/24 15:47:17;;;;;;;35.60;25.07;;;;;;;;;;5112400;28;20190;-81